Time;durP1;ratioP1;P1;durP2;ratioP2;P2;SDS_P1;SDS_P2;PMS_P1;PMS_P2;Temp;Humidity;BMP_temperature;BMP_pressure;BME280_temperature;BME280_humidity;BME280_pressure;Samples;Min_cycle;Max_cycle;Signal;HPM_P1;HPM_P2
2022/11/06 00:00:42;;;;;;;6.35;4.07;;;;;;;;;;4859412;29;20045;-63
2022/11/06 00:03:08;;;;;;;7.13;3.75;;;;;;;;;;4859721;29;20053;-63
2022/11/06 00:08:31;;;;;;;8.52;4.32;;;;;;;;;;4860463;29;20084;-63
2022/11/06 00:10:57;;;;;;;9.18;4.15;;;;;;;;;;4860300;29;20049;-63
2022/11/06 00:13:24;;;;;;;7.68;3.90;;;;;;;;;;4859855;29;20551;-63
2022/11/06 00:15:50;;;;;;;7.07;3.97;;;;;;;;;;4874514;29;20049;-63
2022/11/06 00:18:17;;;;;;;5.30;3.85;;;;;;;;;;4874312;29;20049;-63
2022/11/06 00:20:43;;;;;;;7.38;4.32;;;;;;;;;;4860040;29;20053;-63
2022/11/06 00:23:09;;;;;;;8.30;4.53;;;;;;;;;;4873721;29;20053;-63
2022/11/06 00:25:38;;;;;;;8.68;4.40;;;;;;;;;;4858813;29;20109;-62
2022/11/06 00:28:05;;;;;;;6.50;4.00;;;;;;;;;;4874203;29;20046;-62
2022/11/06 00:30:31;;;;;;;7.72;4.35;;;;;;;;;;4859991;29;20102;-63
2022/11/06 00:32:57;;;;;;;4.93;3.83;;;;;;;;;;4859239;29;20061;-63
2022/11/06 00:35:24;;;;;;;7.38;4.22;;;;;;;;;;4860467;29;20110;-62
2022/11/06 00:37:50;;;;;;;5.82;4.28;;;;;;;;;;4860400;29;20049;-63
2022/11/06 00:40:16;;;;;;;4.78;3.60;;;;;;;;;;4873990;29;20082;-62
2022/11/06 00:42:43;;;;;;;5.93;4.32;;;;;;;;;;4859152;29;20109;-63
2022/11/06 00:45:09;;;;;;;5.45;3.83;;;;;;;;;;4859799;29;20045;-63
2022/11/06 00:47:36;;;;;;;8.48;3.90;;;;;;;;;;4859539;29;20102;-63
2022/11/06 00:50:02;;;;;;;5.25;3.47;;;;;;;;;;4873964;29;20487;-62
2022/11/06 00:52:29;;;;;;;9.43;4.50;;;;;;;;;;4859032;29;20090;-63
2022/11/06 00:54:55;;;;;;;6.40;4.43;;;;;;;;;;4858973;29;20450;-63
2022/11/06 00:57:21;;;;;;;7.22;4.85;;;;;;;;;;4859618;29;20050;-63
2022/11/06 00:59:48;;;;;;;10.73;5.90;;;;;;;;;;4858560;29;20098;-63
2022/11/06 01:02:16;;;;;;;13.40;7.13;;;;;;;;;;4873068;29;20113;-63
2022/11/06 01:04:42;;;;;;;13.75;7.47;;;;;;;;;;4859507;29;20058;-63
2022/11/06 01:07:09;;;;;;;18.33;8.30;;;;;;;;;;4859636;29;20053;-63
2022/11/06 01:09:35;;;;;;;17.63;8.10;;;;;;;;;;4859514;29;20041;-63
2022/11/06 01:12:01;;;;;;;8.93;5.72;;;;;;;;;;4873214;29;20561;-63
2022/11/06 01:14:43;;;;;;;10.02;5.30;;;;;;;;;;4859504;29;20049;-63
2022/11/06 01:17:10;;;;;;;12.05;5.57;;;;;;;;;;4859534;29;20045;-63
2022/11/06 01:19:37;;;;;;;7.45;5.22;;;;;;;;;;4859374;29;20440;-63
2022/11/06 01:22:03;;;;;;;10.10;5.18;;;;;;;;;;4858813;29;20460;-63
2022/11/06 01:24:30;;;;;;;7.72;5.53;;;;;;;;;;4873679;29;20169;-63
2022/11/06 01:26:56;;;;;;;7.95;5.57;;;;;;;;;;4859226;29;20113;-64
2022/11/06 01:29:43;;;;;;;8.63;5.32;;;;;;;;;;4859442;29;20078;-63
2022/11/06 01:32:10;;;;;;;11.57;5.25;;;;;;;;;;4858836;29;20094;-63
2022/11/06 01:34:36;;;;;;;13.98;6.93;;;;;;;;;;4872968;29;20053;-64
2022/11/06 01:37:02;;;;;;;9.63;6.13;;;;;;;;;;4858608;29;20503;-63
2022/11/06 01:39:29;;;;;;;9.50;5.68;;;;;;;;;;4858210;29;20566;-64
2022/11/06 01:41:55;;;;;;;7.28;5.35;;;;;;;;;;4858588;29;20566;-63
2022/11/06 01:44:34;;;;;;;10.40;5.95;;;;;;;;;;4859208;29;20049;-64
2022/11/06 01:47:02;;;;;;;8.93;5.38;;;;;;;;;;4859140;29;20097;-64
2022/11/06 01:49:32;;;;;;;9.88;5.78;;;;;;;;;;4857994;29;20590;-64
2022/11/06 01:52:01;;;;;;;6.78;5.07;;;;;;;;;;4872692;29;20049;-63
2022/11/06 01:54:29;;;;;;;12.93;5.72;;;;;;;;;;4859335;29;20468;-63
2022/11/06 01:56:57;;;;;;;11.52;7.13;;;;;;;;;;4859134;29;20419;-64
2022/11/06 01:59:26;;;;;;;7.15;5.80;;;;;;;;;;4873326;29;20056;-63
2022/11/06 02:01:53;;;;;;;10.00;6.00;;;;;;;;;;4858519;29;20132;-63
2022/11/06 02:04:21;;;;;;;13.20;6.50;;;;;;;;;;4859199;29;20053;-64
2022/11/06 02:06:47;;;;;;;10.30;6.03;;;;;;;;;;4859362;29;20574;-64
2022/11/06 02:09:14;;;;;;;12.75;6.38;;;;;;;;;;4876708;29;20114;-63
2022/11/06 02:11:42;;;;;;;13.90;6.35;;;;;;;;;;4862118;29;20110;-63
2022/11/06 02:14:11;;;;;;;10.90;5.93;;;;;;;;;;4862499;29;20042;-63
2022/11/06 02:16:38;;;;;;;8.98;5.15;;;;;;;;;;4862296;29;20049;-64
2022/11/06 02:19:20;;;;;;;10.77;5.97;;;;;;;;;;4862235;29;20054;-64
2022/11/06 02:21:55;;;;;;;9.70;6.15;;;;;;;;;;4861445;29;20049;-63
2022/11/06 02:24:40;;;;;;;13.27;6.07;;;;;;;;;;4864983;29;20045;-64
2022/11/06 02:27:11;;;;;;;9.23;5.82;;;;;;;;;;4913691;29;20048;-64
2022/11/06 02:29:55;;;;;;;11.90;4.85;;;;;;;;;;4899268;29;20048;-64
2022/11/06 02:32:25;;;;;;;11.05;5.50;;;;;;;;;;4898613;29;20085;-64
2022/11/06 02:34:53;;;;;;;11.35;6.38;;;;;;;;;;4899247;29;20048;-62
2022/11/06 02:37:23;;;;;;;10.55;5.75;;;;;;;;;;4899298;29;20541;-62
2022/11/06 02:39:51;;;;;;;7.65;5.50;;;;;;;;;;4913390;29;20044;-62
2022/11/06 02:42:19;;;;;;;7.85;5.82;;;;;;;;;;4898458;29;20123;-62
2022/11/06 02:44:47;;;;;;;15.35;5.90;;;;;;;;;;4899123;29;20068;-62
2022/11/06 02:47:13;;;;;;;9.57;5.32;;;;;;;;;;4898988;29;20656;-62
2022/11/06 02:49:42;;;;;;;10.65;5.68;;;;;;;;;;4898850;29;20049;-62
2022/11/06 02:52:15;;;;;;;8.95;5.50;;;;;;;;;;4898466;29;20037;-62
2022/11/06 02:54:44;;;;;;;8.75;5.07;;;;;;;;;;4899236;29;20417;-62
2022/11/06 02:57:14;;;;;;;6.43;4.30;;;;;;;;;;4899032;29;20063;-64
2022/11/06 02:59:51;;;;;;;8.77;4.35;;;;;;;;;;4913555;29;20071;-62
2022/11/06 03:02:20;;;;;;;11.68;5.07;;;;;;;;;;4898045;29;20051;-62
2022/11/06 03:04:51;;;;;;;7.93;4.95;;;;;;;;;;4898733;29;20049;-62
2022/11/06 03:07:27;;;;;;;9.88;4.80;;;;;;;;;;4913031;29;20053;-62
2022/11/06 03:09:54;;;;;;;7.00;4.57;;;;;;;;;;4897507;29;20045;-62
2022/11/06 03:12:41;;;;;;;7.72;4.32;;;;;;;;;;4897905;29;20083;-62
2022/11/06 03:15:10;;;;;;;7.18;4.63;;;;;;;;;;4913122;29;20056;-63
2022/11/06 03:17:43;;;;;;;8.50;4.53;;;;;;;;;;4897925;29;20469;-63
2022/11/06 03:20:22;;;;;;;6.78;4.53;;;;;;;;;;4898419;29;20490;-63
2022/11/06 03:22:53;;;;;;;9.68;5.03;;;;;;;;;;4897690;29;20104;-62
2022/11/06 03:25:26;;;;;;;6.88;5.07;;;;;;;;;;4898526;29;20079;-63
2022/11/06 03:27:59;;;;;;;8.00;4.55;;;;;;;;;;4898218;29;20047;-62
2022/11/06 03:30:25;;;;;;;10.48;4.78;;;;;;;;;;4912688;29;20104;-62
2022/11/06 03:33:01;;;;;;;10.07;5.00;;;;;;;;;;4897553;29;20498;-63
2022/11/06 03:35:32;;;;;;;7.03;5.30;;;;;;;;;;4896962;29;20044;-62
2022/11/06 03:38:02;;;;;;;6.55;4.55;;;;;;;;;;4898184;29;20080;-62
2022/11/06 03:40:31;;;;;;;7.53;5.10;;;;;;;;;;4898014;29;20040;-62
2022/11/06 03:43:00;;;;;;;9.15;5.38;;;;;;;;;;4897222;29;20048;-63
2022/11/06 03:45:27;;;;;;;6.38;4.97;;;;;;;;;;4898083;29;20048;-62
2022/11/06 03:47:59;;;;;;;7.03;5.53;;;;;;;;;;4897905;29;20044;-62
2022/11/06 03:51:01;;;;;;;8.10;4.88;;;;;;;;;;4896992;29;20100;-63
2022/11/06 03:53:30;;;;;;;9.15;5.57;;;;;;;;;;4857543;29;20053;-63
2022/11/06 03:56:22;;;;;;;8.25;5.45;;;;;;;;;;4886002;29;20124;-63
2022/11/06 03:58:49;;;;;;;9.27;4.75;;;;;;;;;;4896266;29;20413;-63
2022/11/06 04:01:19;;;;;;;9.40;4.40;;;;;;;;;;4911894;29;20168;-63
2022/11/06 04:03:48;;;;;;;11.02;5.35;;;;;;;;;;4897066;29;20087;-63
2022/11/06 04:06:18;;;;;;;8.68;4.75;;;;;;;;;;4896755;29;20462;-64
2022/11/06 04:14:19;;;;;;;9.57;4.85;;;;;;;;;;4897582;29;20047;-63
2022/11/06 04:16:49;;;;;;;6.25;4.13;;;;;;;;;;4897556;29;20060;-64
2022/11/06 04:19:16;;;;;;;5.65;4.60;;;;;;;;;;4897438;29;20081;-61
2022/11/06 04:22:01;;;;;;;12.25;4.90;;;;;;;;;;4896838;29;20052;-63
2022/11/06 04:27:38;;;;;;;7.18;4.53;;;;;;;;;;4897233;29;20045;-63
2022/11/06 04:30:06;;;;;;;7.00;4.57;;;;;;;;;;4896609;29;20565;-63
2022/11/06 04:32:33;;;;;;;9.60;4.30;;;;;;;;;;4896568;29;20101;-64
2022/11/06 04:35:02;;;;;;;8.43;4.45;;;;;;;;;;4911771;29;20045;-64
2022/11/06 04:37:29;;;;;;;6.03;4.57;;;;;;;;;;4897233;29;20498;-64
2022/11/06 04:40:06;;;;;;;8.02;5.07;;;;;;;;;;4897177;29;20455;-64
2022/11/06 04:42:36;;;;;;;5.40;4.22;;;;;;;;;;4895268;29;20053;-64
2022/11/06 04:45:05;;;;;;;7.07;4.25;;;;;;;;;;4897133;29;20096;-64
2022/11/06 04:47:32;;;;;;;8.73;4.82;;;;;;;;;;4897046;29;20044;-63
2022/11/06 04:50:01;;;;;;;6.70;4.22;;;;;;;;;;4897077;29;20048;-64
2022/11/06 04:52:27;;;;;;;5.43;4.30;;;;;;;;;;4895273;29;20052;-63
2022/11/06 04:54:55;;;;;;;5.32;4.25;;;;;;;;;;4896991;29;20490;-64
2022/11/06 04:57:22;;;;;;;8.15;4.47;;;;;;;;;;4895623;29;20049;-63
2022/11/06 04:59:48;;;;;;;5.20;4.13;;;;;;;;;;4897046;29;20049;-63
2022/11/06 05:02:14;;;;;;;7.90;4.40;;;;;;;;;;5347885;23;20056;-63
2022/11/06 05:04:44;;;;;;;8.93;4.38;;;;;;;;;;4899892;29;20097;-63
2022/11/06 05:07:12;;;;;;;5.32;4.68;;;;;;;;;;4896321;29;20416;-64
2022/11/06 05:09:38;;;;;;;7.78;4.30;;;;;;;;;;4896905;29;20040;-63
2022/11/06 05:12:04;;;;;;;6.22;4.75;;;;;;;;;;4896413;29;20044;-63
2022/11/06 05:14:32;;;;;;;5.50;4.07;;;;;;;;;;4896326;29;20473;-63
2022/11/06 05:16:58;;;;;;;7.25;4.75;;;;;;;;;;4897888;29;20575;-64
2022/11/06 05:19:25;;;;;;;6.72;5.00;;;;;;;;;;4897757;29;20463;-63
2022/11/06 05:24:36;;;;;;;10.18;5.03;;;;;;;;;;4896971;29;20104;-64
2022/11/06 05:27:03;;;;;;;8.02;4.50;;;;;;;;;;4895599;29;20048;-64
2022/11/06 05:29:29;;;;;;;7.80;4.82;;;;;;;;;;4896757;29;20048;-64
2022/11/06 05:31:55;;;;;;;7.25;4.60;;;;;;;;;;4894640;29;20100;-64
2022/11/06 05:34:22;;;;;;;6.20;4.38;;;;;;;;;;4896701;29;20105;-63
2022/11/06 05:36:48;;;;;;;4.70;4.20;;;;;;;;;;4896615;29;20068;-62
2022/11/06 05:39:14;;;;;;;8.70;4.22;;;;;;;;;;4896770;29;20088;-63
2022/11/06 05:41:41;;;;;;;7.05;4.38;;;;;;;;;;4898246;29;20108;-64
2022/11/06 05:44:07;;;;;;;6.25;4.10;;;;;;;;;;4900152;29;20045;-64
2022/11/06 05:46:34;;;;;;;6.85;4.07;;;;;;;;;;4899943;29;20040;-64
2022/11/06 05:49:14;;;;;;;4.57;3.72;;;;;;;;;;4900112;29;20052;-64
2022/11/06 05:51:40;;;;;;;5.07;3.67;;;;;;;;;;4899531;29;20045;-64
2022/11/06 05:54:07;;;;;;;7.30;5.40;;;;;;;;;;4899557;29;20041;-63
2022/11/06 05:56:33;;;;;;;17.73;10.63;;;;;;;;;;4899854;29;20092;-64
2022/11/06 05:58:59;;;;;;;8.35;4.72;;;;;;;;;;4900148;29;20052;-63
2022/11/06 06:01:26;;;;;;;8.48;4.82;;;;;;;;;;4899665;29;20124;-63
2022/11/06 06:03:52;;;;;;;5.75;3.67;;;;;;;;;;4897917;29;20462;-63
2022/11/06 06:06:19;;;;;;;6.93;4.32;;;;;;;;;;4883178;29;20048;-65
2022/11/06 06:08:45;;;;;;;5.25;4.05;;;;;;;;;;4899785;29;20486;-63
2022/11/06 06:11:11;;;;;;;7.63;4.53;;;;;;;;;;4899668;29;20092;-65
2022/11/06 06:13:38;;;;;;;7.53;4.70;;;;;;;;;;4897726;29;20049;-63
2022/11/06 06:16:05;;;;;;;6.80;4.10;;;;;;;;;;4900034;29;20073;-65
2022/11/06 06:18:31;;;;;;;12.23;4.82;;;;;;;;;;4899608;29;20044;-64
2022/11/06 06:21:00;;;;;;;6.80;5.07;;;;;;;;;;4899504;29;20104;-62
2022/11/06 06:23:27;;;;;;;8.00;4.65;;;;;;;;;;4897765;29;20044;-64
2022/11/06 06:25:55;;;;;;;4.68;4.18;;;;;;;;;;4898298;29;20048;-64
2022/11/06 06:28:21;;;;;;;8.43;4.60;;;;;;;;;;4899388;29;20458;-62
2022/11/06 06:30:47;;;;;;;7.10;4.60;;;;;;;;;;4898184;29;20056;-62
2022/11/06 06:33:14;;;;;;;11.40;4.97;;;;;;;;;;4897628;29;20049;-63
2022/11/06 06:35:40;;;;;;;6.82;4.63;;;;;;;;;;4899450;29;20535;-64
2022/11/06 06:38:07;;;;;;;9.27;5.03;;;;;;;;;;4899369;29;20113;-63
2022/11/06 06:40:33;;;;;;;7.82;4.70;;;;;;;;;;4897872;29;20052;-64
2022/11/06 06:42:59;;;;;;;7.55;4.65;;;;;;;;;;4898461;29;20116;-64
2022/11/06 06:45:26;;;;;;;8.32;5.13;;;;;;;;;;4899034;29;20049;-62
2022/11/06 06:47:52;;;;;;;8.32;5.90;;;;;;;;;;4899014;29;20490;-63
2022/11/06 06:50:19;;;;;;;8.85;5.22;;;;;;;;;;4899474;29;20079;-63
2022/11/06 06:52:46;;;;;;;7.82;5.65;;;;;;;;;;4897593;29;20052;-66
2022/11/06 06:55:12;;;;;;;11.93;5.68;;;;;;;;;;4898129;29;20087;-63
2022/11/06 06:57:39;;;;;;;8.88;5.43;;;;;;;;;;4898893;29;20458;-63
2022/11/06 07:00:06;;;;;;;14.32;5.85;;;;;;;;;;4898760;29;20044;-63
2022/11/06 07:02:32;;;;;;;6.68;4.70;;;;;;;;;;4896665;29;20049;-63
2022/11/06 07:04:58;;;;;;;8.95;5.53;;;;;;;;;;4898709;29;20044;-63
2022/11/06 07:07:25;;;;;;;9.73;5.50;;;;;;;;;;4898646;29;20045;-63
2022/11/06 07:09:51;;;;;;;7.47;5.40;;;;;;;;;;4897457;29;20052;-63
2022/11/06 07:12:18;;;;;;;5.97;4.32;;;;;;;;;;4897977;29;20072;-62
2022/11/06 07:14:44;;;;;;;9.60;5.22;;;;;;;;;;4898625;29;20384;-64
2022/11/06 07:17:10;;;;;;;4.90;4.38;;;;;;;;;;4898618;29;20049;-62
2022/11/06 07:19:37;;;;;;;8.25;4.55;;;;;;;;;;4897237;29;20053;-63
2022/11/06 07:22:03;;;;;;;5.68;4.72;;;;;;;;;;4896806;29;20036;-63
2022/11/06 07:24:30;;;;;;;10.63;6.15;;;;;;;;;;4897315;29;20041;-64
2022/11/06 07:26:56;;;;;;;6.22;4.93;;;;;;;;;;4897400;29;20036;-64
2022/11/06 07:29:22;;;;;;;9.18;5.47;;;;;;;;;;4898288;29;20037;-64
2022/11/06 07:31:49;;;;;;;7.40;5.30;;;;;;;;;;4897771;29;20097;-64
2022/11/06 07:34:15;;;;;;;8.70;6.05;;;;;;;;;;4897768;29;20048;-64
2022/11/06 07:36:41;;;;;;;9.57;6.38;;;;;;;;;;4898408;29;20044;-63
2022/11/06 07:39:08;;;;;;;7.90;6.13;;;;;;;;;;4898412;29;20045;-63
2022/11/06 07:41:34;;;;;;;9.20;5.80;;;;;;;;;;4896688;29;20115;-64
2022/11/06 07:44:01;;;;;;;13.63;6.72;;;;;;;;;;4897793;29;20056;-63
2022/11/06 07:46:27;;;;;;;8.43;5.85;;;;;;;;;;4898073;29;20048;-64
2022/11/06 07:48:53;;;;;;;11.65;6.82;;;;;;;;;;4897701;29;20053;-64
2022/11/06 07:51:20;;;;;;;9.27;6.45;;;;;;;;;;4897049;29;20044;-62
2022/11/06 07:53:46;;;;;;;10.18;6.78;;;;;;;;;;4897188;29;20041;-62
2022/11/06 07:56:13;;;;;;;10.90;5.85;;;;;;;;;;4897830;29;20088;-62
2022/11/06 07:58:39;;;;;;;10.77;7.13;;;;;;;;;;4896722;29;20056;-63
2022/11/06 08:01:10;;;;;;;14.00;7.68;;;;;;;;;;4896709;29;20096;-64
2022/11/06 08:03:43;;;;;;;9.00;6.75;;;;;;;;;;4896123;29;20060;-63
2022/11/06 08:06:09;;;;;;;9.52;6.63;;;;;;;;;;4897699;29;20127;-63
2022/11/06 08:08:36;;;;;;;9.85;6.72;;;;;;;;;;4897681;29;20052;-64
2022/11/06 08:11:03;;;;;;;9.60;7.20;;;;;;;;;;4880728;29;20453;-64
2022/11/06 08:13:30;;;;;;;9.82;6.60;;;;;;;;;;4895655;29;20045;-64
2022/11/06 08:15:56;;;;;;;9.98;6.35;;;;;;;;;;4896616;29;20053;-63
2022/11/06 08:18:22;;;;;;;10.55;6.47;;;;;;;;;;4897568;29;20095;-64
2022/11/06 08:20:51;;;;;;;7.97;6.18;;;;;;;;;;4897505;29;20574;-63
2022/11/06 08:23:17;;;;;;;7.05;6.00;;;;;;;;;;4896754;29;20115;-62
2022/11/06 08:25:44;;;;;;;10.23;6.90;;;;;;;;;;4897344;29;20502;-63
2022/11/06 08:28:10;;;;;;;7.50;5.78;;;;;;;;;;4896175;29;20573;-63
2022/11/06 08:30:37;;;;;;;8.52;6.80;;;;;;;;;;4897142;29;20049;-63
2022/11/06 08:33:05;;;;;;;10.82;6.57;;;;;;;;;;4896525;29;20045;-63
2022/11/06 08:35:33;;;;;;;8.88;6.15;;;;;;;;;;4897384;29;20140;-63
2022/11/06 08:37:59;;;;;;;9.57;5.22;;;;;;;;;;4896909;29;20517;-63
2022/11/06 08:40:26;;;;;;;8.43;5.70;;;;;;;;;;4897309;29;20053;-63
2022/11/06 08:43:00;;;;;;;8.40;5.72;;;;;;;;;;4896645;29;20573;-63
2022/11/06 08:45:27;;;;;;;8.25;6.30;;;;;;;;;;4896039;29;20053;-63
2022/11/06 08:47:53;;;;;;;9.18;5.97;;;;;;;;;;4895848;29;20057;-63
2022/11/06 08:50:19;;;;;;;9.90;5.63;;;;;;;;;;4896057;29;20076;-62
2022/11/06 08:52:46;;;;;;;6.70;5.40;;;;;;;;;;4896120;29;20065;-63
2022/11/06 08:55:12;;;;;;;8.88;5.75;;;;;;;;;;4897572;29;20104;-63
2022/11/06 08:57:39;;;;;;;7.28;5.68;;;;;;;;;;4896761;29;20045;-64
2022/11/06 09:00:05;;;;;;;10.60;6.13;;;;;;;;;;4896911;29;20512;-63
2022/11/06 09:02:32;;;;;;;7.20;5.53;;;;;;;;;;4894885;29;20052;-63
2022/11/06 09:04:58;;;;;;;10.75;7.25;;;;;;;;;;4896847;29;20503;-62
2022/11/06 09:07:24;;;;;;;11.10;6.85;;;;;;;;;;4895783;29;20056;-63
2022/11/06 09:09:51;;;;;;;9.48;5.88;;;;;;;;;;4896906;29;20045;-63
2022/11/06 09:12:17;;;;;;;9.38;6.10;;;;;;;;;;4896217;29;20096;-63
2022/11/06 09:14:44;;;;;;;5.40;4.65;;;;;;;;;;4897051;29;20453;-63
2022/11/06 09:17:10;;;;;;;6.88;4.90;;;;;;;;;;4899899;29;20049;-63
2022/11/06 09:19:36;;;;;;;5.90;4.28;;;;;;;;;;4900891;29;20568;-63
2022/11/06 09:22:03;;;;;;;5.45;3.95;;;;;;;;;;4900181;29;20108;-63
2022/11/06 09:24:29;;;;;;;8.25;4.03;;;;;;;;;;4900031;29;20048;-63
2022/11/06 09:27:18;;;;;;;5.68;3.38;;;;;;;;;;4899824;29;20461;-63
2022/11/06 09:29:46;;;;;;;6.10;4.45;;;;;;;;;;4901199;29;20040;-63
2022/11/06 09:32:12;;;;;;;6.82;4.50;;;;;;;;;;4900995;29;20108;-64
2022/11/06 09:34:39;;;;;;;6.60;4.55;;;;;;;;;;4901489;29;20100;-63
2022/11/06 09:37:05;;;;;;;6.95;4.15;;;;;;;;;;4901309;29;20045;-63
2022/11/06 09:39:31;;;;;;;5.53;3.55;;;;;;;;;;4900790;29;20060;-64
2022/11/06 09:42:08;;;;;;;8.32;4.25;;;;;;;;;;4899875;29;20390;-63
2022/11/06 09:44:46;;;;;;;9.50;4.20;;;;;;;;;;4900263;29;20049;-64
2022/11/06 09:47:14;;;;;;;5.53;4.10;;;;;;;;;;4900150;29;20501;-63
2022/11/06 09:49:44;;;;;;;5.30;3.88;;;;;;;;;;4898923;29;20045;-63
2022/11/06 09:52:16;;;;;;;6.03;3.42;;;;;;;;;;4899553;29;20120;-63
2022/11/06 09:54:51;;;;;;;4.50;3.33;;;;;;;;;;4900416;29;20033;-63
2022/11/06 09:57:36;;;;;;;5.53;3.00;;;;;;;;;;4900870;29;20045;-63
2022/11/06 10:00:04;;;;;;;5.55;3.55;;;;;;;;;;4901259;29;20056;-63
2022/11/06 10:02:42;;;;;;;6.60;3.60;;;;;;;;;;4899976;29;20056;-63
2022/11/06 10:05:27;;;;;;;6.30;4.03;;;;;;;;;;4900255;29;20059;-63
2022/11/06 10:07:55;;;;;;;25.90;13.30;;;;;;;;;;4898968;29;20060;-63
2022/11/06 10:10:26;;;;;;;7.82;4.65;;;;;;;;;;4899725;29;20517;-63
2022/11/06 10:12:59;;;;;;;4.93;3.20;;;;;;;;;;4899308;29;20127;-63
2022/11/06 10:15:29;;;;;;;6.00;3.28;;;;;;;;;;4898600;29;20476;-63
2022/11/06 10:17:55;;;;;;;6.55;2.45;;;;;;;;;;4899561;29;20049;-63
2022/11/06 10:20:45;;;;;;;6.97;2.40;;;;;;;;;;4899579;29;20112;-63
2022/11/06 10:23:14;;;;;;;5.20;3.08;;;;;;;;;;4897964;29;20466;-63
2022/11/06 10:26:13;;;;;;;5.05;2.92;;;;;;;;;;4899382;29;20044;-63
2022/11/06 10:28:48;;;;;;;3.65;2.47;;;;;;;;;;4857033;29;20112;-63
2022/11/06 10:31:25;;;;;;;4.60;3.05;;;;;;;;;;4899467;29;20048;-62
2022/11/06 10:33:57;;;;;;;4.47;3.28;;;;;;;;;;4899005;29;20463;-62
2022/11/06 10:36:27;;;;;;;4.75;2.95;;;;;;;;;;4899492;29;20071;-63
2022/11/06 10:38:54;;;;;;;4.68;3.08;;;;;;;;;;4899505;29;20119;-63
2022/11/06 10:41:23;;;;;;;5.43;2.92;;;;;;;;;;4899344;29;20052;-63
2022/11/06 10:43:55;;;;;;;2.42;2.05;;;;;;;;;;4898610;29;20053;-63
2022/11/06 10:46:35;;;;;;;3.78;2.20;;;;;;;;;;4899403;29;20458;-63
2022/11/06 10:49:03;;;;;;;7.05;3.28;;;;;;;;;;4899059;29;20036;-63
2022/11/06 10:51:49;;;;;;;3.65;2.25;;;;;;;;;;4897881;29;20048;-63
2022/11/06 10:54:30;;;;;;;4.85;2.72;;;;;;;;;;4898699;29;20048;-63
2022/11/06 10:56:59;;;;;;;2.53;1.90;;;;;;;;;;4899275;29;20446;-63
2022/11/06 10:59:26;;;;;;;23.38;11.93;;;;;;;;;;4897761;29;20075;-62
2022/11/06 11:01:52;;;;;;;6.03;3.28;;;;;;;;;;4898249;29;20450;-63
2022/11/06 11:04:19;;;;;;;3.08;1.90;;;;;;;;;;4897858;29;20410;-62
2022/11/06 11:06:46;;;;;;;0.93;0.88;;;;;;;;;;4898968;29;20466;-62
2022/11/06 11:09:39;;;;;;;2.78;2.00;;;;;;;;;;4898766;29;20045;-63
2022/11/06 11:12:18;;;;;;;2.30;1.67;;;;;;;;;;4893828;29;20116;-62
2022/11/06 11:14:44;;;;;;;1.85;1.30;;;;;;;;;;4898691;29;20041;-63
2022/11/06 11:17:18;;;;;;;2.45;1.42;;;;;;;;;;4898764;29;20128;-63
2022/11/06 11:19:44;;;;;;;1.60;1.10;;;;;;;;;;4898549;29;20108;-63
2022/11/06 11:22:18;;;;;;;2.10;1.30;;;;;;;;;;4896895;29;20045;-63
2022/11/06 11:24:57;;;;;;;3.53;1.17;;;;;;;;;;4898399;29;20045;-63
2022/11/06 11:27:24;;;;;;;3.72;1.42;;;;;;;;;;4897398;29;20104;-62
2022/11/06 11:29:51;;;;;;;2.28;1.67;;;;;;;;;;4898281;29;20037;-62
2022/11/06 11:32:19;;;;;;;5.03;1.40;;;;;;;;;;4896638;29;20045;-62
2022/11/06 11:34:47;;;;;;;2.00;1.20;;;;;;;;;;4898216;29;20469;-62
2022/11/06 11:37:26;;;;;;;1.10;1.00;;;;;;;;;;4896872;29;20045;-62
2022/11/06 11:39:52;;;;;;;2.72;1.35;;;;;;;;;;4896566;29;20052;-61
2022/11/06 11:42:21;;;;;;;1.92;1.30;;;;;;;;;;4897449;29;20058;-62
2022/11/06 11:45:07;;;;;;;3.17;1.63;;;;;;;;;;4897196;29;20076;-62
2022/11/06 11:47:33;;;;;;;2.00;1.10;;;;;;;;;;4896643;29;20552;-62
2022/11/06 11:50:26;;;;;;;1.95;1.20;;;;;;;;;;4898118;29;20077;-62
2022/11/06 11:52:55;;;;;;;1.27;1.10;;;;;;;;;;4894261;29;20072;-62
2022/11/06 11:55:26;;;;;;;1.92;1.30;;;;;;;;;;4897980;29;20048;-62
2022/11/06 11:57:54;;;;;;;1.30;1.20;;;;;;;;;;4897974;29;20446;-62
2022/11/06 12:00:21;;;;;;;2.65;1.60;;;;;;;;;;4897929;29;20064;-62
2022/11/06 12:02:57;;;;;;;1.05;1.00;;;;;;;;;;4897296;29;20086;-61
2022/11/06 12:05:35;;;;;;;3.20;1.40;;;;;;;;;;4896726;29;20056;-62
2022/11/06 12:08:03;;;;;;;2.13;1.45;;;;;;;;;;4897797;29;20044;-61
2022/11/06 12:10:40;;;;;;;4.78;3.45;;;;;;;;;;4897767;29;20438;-62
2022/11/06 12:13:23;;;;;;;2.78;2.08;;;;;;;;;;4897173;29;20092;-62
2022/11/06 12:15:49;;;;;;;2.40;1.23;;;;;;;;;;4897918;29;20112;-62
2022/11/06 12:18:21;;;;;;;4.55;1.30;;;;;;;;;;4897847;29;20749;-62
2022/11/06 12:20:47;;;;;;;3.88;1.85;;;;;;;;;;4897613;29;20048;-62
2022/11/06 12:23:23;;;;;;;1.92;1.20;;;;;;;;;;4880047;29;20044;-62
2022/11/06 12:25:57;;;;;;;2.78;1.30;;;;;;;;;;4896386;29;20060;-62
2022/11/06 12:28:24;;;;;;;2.47;1.30;;;;;;;;;;4896805;29;20045;-62
2022/11/06 12:30:56;;;;;;;1.73;1.50;;;;;;;;;;4896266;29;20096;-62
2022/11/06 12:33:24;;;;;;;3.97;1.40;;;;;;;;;;4896896;29;20059;-62
2022/11/06 12:36:12;;;;;;;1.80;1.13;;;;;;;;;;4896258;29;20144;-62
2022/11/06 12:38:52;;;;;;;1.70;1.50;;;;;;;;;;4897474;29;20454;-61
2022/11/06 12:41:26;;;;;;;3.60;1.40;;;;;;;;;;4896723;29;20113;-63
2022/11/06 12:43:55;;;;;;;2.80;1.60;;;;;;;;;;4897167;29;20513;-63
2022/11/06 12:46:30;;;;;;;6.10;3.70;;;;;;;;;;4897156;29;20048;-63
2022/11/06 12:49:03;;;;;;;24.70;14.15;;;;;;;;;;4896995;29;20104;-62
2022/11/06 12:51:32;;;;;;;12.50;5.13;;;;;;;;;;4896477;29;20044;-62
2022/11/06 12:54:05;;;;;;;10.15;7.15;;;;;;;;;;4896688;29;20045;-62
2022/11/06 12:56:42;;;;;;;7.72;3.65;;;;;;;;;;4896808;29;20045;-62
2022/11/06 12:59:44;;;;;;;2.33;1.80;;;;;;;;;;4896967;29;20045;-62
2022/11/06 13:02:46;;;;;;;3.22;2.38;;;;;;;;;;4820126;29;20050;-63
2022/11/06 13:05:18;;;;;;;1.60;1.10;;;;;;;;;;4820927;29;20062;-64
2022/11/06 13:07:45;;;;;;;5.35;1.80;;;;;;;;;;4884659;29;20127;-64
2022/11/06 13:10:14;;;;;;;2.17;1.15;;;;;;;;;;4896888;29;20104;-63
2022/11/06 13:12:53;;;;;;;1.73;1.40;;;;;;;;;;4905798;23;20045;-62
2022/11/06 13:15:20;;;;;;;2.55;1.27;;;;;;;;;;4877202;29;20041;-63
2022/11/06 13:17:56;;;;;;;2.97;1.38;;;;;;;;;;4878173;29;20085;-62
2022/11/06 13:20:30;;;;;;;3.42;1.40;;;;;;;;;;4878412;29;20509;-61
2022/11/06 13:23:03;;;;;;;3.60;1.77;;;;;;;;;;4877303;29;20056;-63
2022/11/06 13:25:30;;;;;;;;;;;;;;;;;;4878821;29;20809;-62
2022/11/06 13:28:05;;;;;;;1.88;1.33;;;;;;;;;;4876889;29;20034;-63
2022/11/06 13:30:33;;;;;;;1.95;1.40;;;;;;;;;;4878142;29;20048;-62
2022/11/06 13:33:14;;;;;;;3.15;1.17;;;;;;;;;;4877463;29;20375;-63
2022/11/06 13:35:42;;;;;;;2.83;1.52;;;;;;;;;;4878155;29;20490;-63
2022/11/06 13:38:13;;;;;;;1.17;1.10;;;;;;;;;;4878269;29;20068;-63
2022/11/06 13:40:41;;;;;;;4.13;1.70;;;;;;;;;;4876811;29;20041;-61
2022/11/06 13:43:18;;;;;;;3.20;2.50;;;;;;;;;;4877663;29;20041;-61
2022/11/06 13:46:03;;;;;;;11.13;5.72;;;;;;;;;;4876915;29;20109;-62
2022/11/06 13:48:50;;;;;;;11.00;5.90;;;;;;;;;;4878148;29;20071;-62
2022/11/06 13:51:16;;;;;;;1.75;1.52;;;;;;;;;;4877786;29;20409;-62
2022/11/06 13:53:45;;;;;;;4.68;1.88;;;;;;;;;;4877431;29;20045;-63
2022/11/06 13:56:30;;;;;;;8.57;4.47;;;;;;;;;;4876522;29;20097;-62
2022/11/06 13:59:09;;;;;;;5.60;3.28;;;;;;;;;;4877905;29;20101;-63
2022/11/06 14:01:41;;;;;;;8.38;3.60;;;;;;;;;;4877697;29;20474;-63
2022/11/06 14:04:17;;;;;;;11.15;4.55;;;;;;;;;;4879824;29;20080;-63
2022/11/06 14:06:44;;;;;;;4.90;2.65;;;;;;;;;;4879977;29;20113;-62
2022/11/06 14:09:21;;;;;;;3.03;1.70;;;;;;;;;;4881095;29;20052;-63
2022/11/06 14:11:52;;;;;;;3.30;2.22;;;;;;;;;;4879231;29;20037;-61
2022/11/06 14:14:18;;;;;;;4.63;2.20;;;;;;;;;;4881454;29;20498;-61
2022/11/06 14:17:05;;;;;;;4.15;2.17;;;;;;;;;;4880121;29;20064;-62
2022/11/06 14:19:31;;;;;;;2.35;1.60;;;;;;;;;;4880917;29;20041;-62
2022/11/06 14:22:07;;;;;;;2.67;1.33;;;;;;;;;;4879187;29;20059;-62
2022/11/06 14:24:34;;;;;;;3.33;1.65;;;;;;;;;;4880016;29;20045;-62
2022/11/06 14:27:02;;;;;;;2.90;1.60;;;;;;;;;;4881040;29;20052;-62
2022/11/06 14:29:29;;;;;;;2.95;2.38;;;;;;;;;;4880910;29;20619;-63
2022/11/06 14:32:30;;;;;;;6.32;2.95;;;;;;;;;;4880130;29;20049;-62
2022/11/06 14:34:57;;;;;;;2.78;2.00;;;;;;;;;;4880869;29;20119;-62
2022/11/06 14:37:23;;;;;;;8.82;5.47;;;;;;;;;;4880759;29;20451;-62
2022/11/06 14:39:56;;;;;;;18.23;12.45;;;;;;;;;;4880953;29;20053;-62
2022/11/06 14:42:22;;;;;;;39.13;20.95;;;;;;;;;;4880115;29;20049;-62
2022/11/06 14:45:01;;;;;;;7.72;4.20;;;;;;;;;;4879446;29;20108;-62
2022/11/06 14:47:30;;;;;;;3.72;2.22;;;;;;;;;;4879293;29;20064;-61
2022/11/06 14:49:59;;;;;;;1.90;1.70;;;;;;;;;;4879192;29;20045;-62
2022/11/06 14:52:26;;;;;;;5.50;2.10;;;;;;;;;;4879815;29;20049;-63
2022/11/06 14:54:56;;;;;;;2.67;1.42;;;;;;;;;;4879302;29;20052;-62
2022/11/06 14:57:45;;;;;;;3.53;1.55;;;;;;;;;;4879234;29;20473;-63
2022/11/06 15:00:31;;;;;;;3.22;2.25;;;;;;;;;;4880435;29;20052;-62
2022/11/06 15:02:58;;;;;;;2.28;1.40;;;;;;;;;;4878518;29;20160;-63
2022/11/06 15:05:25;;;;;;;1.75;1.30;;;;;;;;;;4880382;29;20056;-62
2022/11/06 15:07:56;;;;;;;2.08;1.33;;;;;;;;;;4880259;29;20180;-62
2022/11/06 15:10:40;;;;;;;2.05;1.38;;;;;;;;;;4880476;29;20132;-62
2022/11/06 15:13:16;;;;;;;3.90;2.30;;;;;;;;;;4879534;29;20145;-63